createdAt,value
2019-04-29T00:01:33.713Z,1.93
2019-04-29T00:04:03.613Z,1.93
2019-04-29T00:06:33.738Z,2.20
2019-04-29T00:09:06.773Z,1.87
2019-04-29T00:11:35.582Z,2.20
2019-04-29T00:14:05.641Z,2.00
2019-04-29T00:16:46.876Z,1.90
2019-04-29T00:19:36.282Z,2.33
2019-04-29T00:22:06.391Z,2.10
2019-04-29T00:24:36.305Z,2.40
2019-04-29T00:27:06.317Z,1.87
2019-04-29T00:29:35.943Z,2.10
2019-04-29T00:32:05.824Z,2.30
2019-04-29T00:34:35.644Z,2.30
2019-04-29T00:37:12.088Z,2.03
2019-04-29T00:40:14.588Z,2.03
2019-04-29T00:42:56.594Z,1.80
2019-04-29T00:45:27.033Z,2.00
2019-04-29T00:47:57.240Z,2.00
2019-04-29T00:50:26.781Z,2.33
2019-04-29T00:52:56.484Z,2.20
2019-04-29T00:55:28.413Z,2.50
2019-04-29T00:57:58.026Z,2.10
2019-04-29T01:00:39.705Z,1.97
2019-04-29T01:03:09.721Z,2.20
2019-04-29T01:05:39.335Z,2.17
2019-04-29T01:08:09.044Z,1.93
2019-04-29T01:10:38.618Z,2.07
2019-04-29T01:13:08.317Z,2.43
2019-04-29T01:15:38.217Z,2.30
2019-04-29T01:18:08.201Z,2.60
2019-04-29T01:20:37.826Z,2.50
2019-04-29T01:23:07.445Z,2.03
2019-04-29T01:25:37.006Z,2.63
2019-04-29T01:28:30.576Z,2.67
2019-04-29T01:31:04.523Z,2.37
2019-04-29T01:33:34.593Z,2.10
2019-04-29T01:36:41.489Z,2.30
2019-04-29T01:39:12.794Z,2.00
2019-04-29T01:41:51.224Z,2.57
2019-04-29T01:44:21.117Z,2.30
2019-04-29T01:46:50.813Z,2.47
2019-04-29T01:49:20.444Z,2.30
2019-04-29T01:51:50.269Z,2.33
2019-04-29T01:54:19.901Z,2.00
2019-04-29T01:56:49.452Z,2.00
2019-04-29T01:59:19.142Z,2.37
2019-04-29T02:01:49.110Z,2.20
2019-04-29T02:04:35.300Z,2.73
2019-04-29T02:07:05.420Z,2.50
2019-04-29T02:09:47.392Z,2.50
2019-04-29T02:12:17.225Z,2.10
2019-04-29T02:14:46.768Z,2.13
2019-04-29T02:17:16.393Z,2.30
2019-04-29T02:19:46.924Z,2.20
2019-04-29T02:22:23.472Z,2.20
2019-04-29T02:24:57.078Z,2.20
2019-04-29T02:27:26.718Z,1.87
2019-04-29T02:29:56.337Z,2.13
2019-04-29T02:32:26.165Z,2.20
2019-04-29T02:34:56.077Z,2.27
2019-04-29T02:37:31.003Z,2.23
2019-04-29T02:40:06.721Z,2.50
2019-04-29T02:42:54.432Z,1.93
2019-04-29T02:45:28.174Z,2.43
2019-04-29T02:47:57.726Z,2.00
2019-04-29T02:50:27.349Z,2.30
2019-04-29T02:52:56.893Z,1.97
2019-04-29T02:55:31.228Z,2.23
2019-04-29T02:58:05.828Z,2.40
2019-04-29T03:01:00.645Z,2.20
2019-04-29T03:03:42.302Z,2.17
2019-04-29T03:06:11.873Z,2.40
2019-04-29T03:08:41.509Z,2.97
2019-04-29T03:11:11.567Z,2.13
2019-04-29T03:13:41.181Z,2.30
2019-04-29T03:16:11.136Z,2.40
2019-04-29T03:18:45.737Z,2.00
2019-04-29T03:21:27.233Z,2.23
2019-04-29T03:23:56.797Z,2.20
2019-04-29T03:26:26.708Z,2.20
2019-04-29T03:28:56.413Z,2.20
2019-04-29T03:31:26.545Z,2.20
2019-04-29T03:33:56.229Z,2.00
2019-04-29T03:36:26.157Z,2.20
2019-04-29T03:38:56.173Z,2.03
2019-04-29T03:41:25.877Z,1.97
2019-04-29T03:43:55.444Z,2.00
2019-04-29T03:46:24.998Z,2.60
2019-04-29T03:48:55.927Z,2.13
2019-04-29T03:51:25.841Z,2.43
2019-04-29T03:53:55.660Z,1.93
2019-04-29T03:56:25.217Z,2.20
2019-04-29T03:58:54.761Z,1.63
2019-04-29T04:01:35.748Z,1.93
2019-04-29T04:04:17.306Z,2.30
2019-04-29T04:06:54.651Z,2.43
2019-04-29T04:09:27.270Z,2.40
2019-04-29T04:11:57.445Z,2.20
2019-04-29T04:14:27.012Z,2.17
2019-04-29T04:17:24.240Z,2.47
2019-04-29T04:20:07.984Z,2.00
2019-04-29T04:22:47.312Z,2.90
2019-04-29T04:25:17.888Z,2.10
2019-04-29T04:27:47.868Z,2.30
2019-04-29T04:30:19.307Z,2.20
2019-04-29T04:32:48.864Z,2.37
2019-04-29T04:35:18.753Z,2.43
2019-04-29T04:37:48.353Z,2.30
2019-04-29T04:40:23.484Z,2.33
2019-04-29T04:42:53.124Z,2.23
2019-04-29T04:45:22.672Z,2.20
2019-04-29T04:47:52.513Z,2.47
2019-04-29T04:50:22.383Z,2.30
2019-04-29T04:52:52.004Z,1.87
2019-04-29T04:55:23.588Z,2.10
2019-04-29T04:57:53.171Z,2.10
2019-04-29T05:00:24.050Z,2.17
2019-04-29T05:02:53.681Z,2.13
2019-04-29T05:05:23.550Z,1.70
2019-04-29T05:07:53.231Z,2.07
2019-04-29T05:10:23.171Z,1.97
2019-04-29T05:13:27.856Z,1.93
2019-04-29T05:15:48.289Z,2.30
2019-04-29T05:18:18.409Z,2.03
2019-04-29T05:20:48.221Z,2.03
2019-04-29T05:23:18.025Z,2.50
2019-04-29T05:25:47.846Z,2.27
2019-04-29T05:28:17.654Z,1.97
2019-04-29T05:30:47.205Z,2.13
2019-04-29T05:33:17.074Z,2.20
2019-04-29T05:35:56.787Z,1.63
2019-04-29T05:38:34.560Z,1.57
2019-04-29T05:41:04.204Z,2.13
2019-04-29T05:43:59.000Z,2.03
2019-04-29T05:46:44.857Z,1.90
2019-04-29T05:49:17.292Z,2.30
2019-04-29T05:52:08.717Z,2.03
2019-04-29T05:54:38.259Z,2.23
2019-04-29T05:57:07.805Z,2.60
2019-04-29T05:59:37.364Z,3.30
2019-04-29T06:02:08.249Z,2.40
2019-04-29T06:04:38.049Z,2.30
2019-04-29T06:07:07.700Z,2.20
2019-04-29T06:09:37.263Z,2.90
2019-04-29T06:12:06.918Z,2.50
2019-04-29T06:14:44.976Z,3.00
2019-04-29T06:17:22.396Z,2.60
2019-04-29T06:19:52.313Z,2.13
2019-04-29T06:22:21.860Z,2.90
2019-04-29T06:24:51.696Z,2.97
2019-04-29T06:27:21.593Z,3.33
2019-04-29T06:29:51.334Z,2.40
2019-04-29T06:32:24.842Z,2.37
2019-04-29T06:34:52.477Z,2.80
2019-04-29T06:37:22.289Z,2.40
2019-04-29T06:39:51.836Z,2.73
2019-04-29T06:42:33.781Z,2.53
2019-04-29T06:45:03.914Z,2.13
2019-04-29T06:47:33.456Z,2.47
2019-04-29T06:50:03.737Z,3.00
2019-04-29T06:52:33.884Z,2.67
2019-04-29T06:55:03.684Z,2.77
2019-04-29T06:57:33.577Z,2.73
2019-04-29T07:00:03.596Z,2.53
2019-04-29T07:02:33.160Z,2.97
2019-04-29T07:05:04.036Z,2.70
2019-04-29T07:07:33.846Z,3.00
2019-04-29T07:10:03.958Z,2.67
2019-04-29T07:12:33.589Z,2.93
2019-04-29T07:15:03.328Z,3.17
2019-04-29T07:17:43.089Z,2.63
2019-04-29T07:20:13.564Z,3.57
2019-04-29T07:22:43.461Z,3.40
2019-04-29T07:25:16.645Z,3.10
2019-04-29T07:27:46.197Z,3.37
2019-04-29T07:30:16.101Z,2.90
2019-04-29T07:32:47.165Z,2.73
2019-04-29T07:35:23.674Z,2.90
2019-04-29T07:37:53.485Z,2.70
2019-04-29T07:40:23.493Z,3.40
2019-04-29T07:42:53.388Z,3.90
2019-04-29T07:45:44.056Z,3.20
2019-04-29T07:48:07.897Z,3.03
2019-04-29T07:50:38.132Z,2.90
2019-04-29T07:53:07.921Z,2.83
2019-04-29T07:55:37.726Z,3.07
2019-04-29T07:58:07.368Z,2.97
2019-04-29T08:00:37.349Z,2.33
2019-04-29T08:03:08.362Z,2.87
2019-04-29T08:05:38.409Z,3.23
2019-04-29T08:08:16.565Z,2.83
2019-04-29T08:10:54.062Z,3.37
2019-04-29T08:13:19.109Z,3.00
2019-04-29T08:15:49.020Z,2.97
2019-04-29T08:18:18.829Z,3.30
2019-04-29T08:20:49.850Z,3.43
2019-04-29T08:23:40.913Z,3.50
2019-04-29T08:26:04.653Z,3.33
2019-04-29T08:28:34.461Z,3.13
2019-04-29T08:31:04.124Z,3.30
2019-04-29T08:33:33.693Z,2.87
2019-04-29T08:36:03.301Z,3.27
2019-04-29T08:38:33.193Z,3.70
2019-04-29T08:41:02.747Z,3.37
2019-04-29T08:43:52.437Z,3.50
2019-04-29T08:46:37.344Z,4.13
2019-04-29T08:49:07.811Z,4.50
2019-04-29T08:51:37.444Z,3.93
2019-04-29T08:54:07.506Z,3.53
2019-04-29T08:56:40.789Z,3.57
2019-04-29T08:59:08.966Z,3.47
2019-04-29T09:01:38.513Z,4.00
2019-04-29T09:04:08.065Z,3.03
2019-04-29T09:06:37.652Z,4.00
2019-04-29T09:09:10.608Z,4.03
2019-04-29T09:11:39.247Z,4.23
2019-04-29T09:14:09.149Z,4.40
2019-04-29T09:16:38.740Z,4.80
2019-04-29T09:19:08.672Z,4.73
2019-04-29T09:21:41.246Z,4.57
2019-04-29T09:24:10.821Z,4.27
2019-04-29T09:26:51.144Z,4.10
2019-04-29T09:29:36.902Z,3.93
2019-04-29T09:32:07.626Z,4.80
2019-04-29T09:34:37.473Z,4.40
2019-04-29T09:37:07.665Z,3.57
2019-04-29T09:39:43.491Z,4.20
2019-04-29T09:42:39.808Z,4.97
2019-04-29T09:45:24.539Z,4.43
2019-04-29T09:47:54.207Z,5.20
2019-04-29T09:50:34.066Z,5.10
2019-04-29T09:53:01.938Z,4.40
2019-04-29T09:55:35.644Z,4.40
2019-04-29T09:58:03.091Z,4.50
2019-04-29T10:01:13.777Z,4.50
2019-04-29T10:04:12.825Z,4.23
2019-04-29T10:06:43.378Z,4.03
2019-04-29T10:09:13.385Z,4.50
2019-04-29T10:11:43.521Z,3.53
2019-04-29T10:14:13.102Z,3.90
2019-04-29T10:16:51.458Z,4.47
2019-04-29T10:19:30.317Z,3.70
2019-04-29T10:22:00.264Z,3.90
2019-04-29T10:24:30.382Z,3.83
2019-04-29T10:27:00.296Z,2.60
2019-04-29T10:29:31.813Z,3.27
2019-04-29T10:32:02.551Z,2.60
2019-04-29T10:34:33.289Z,3.10
2019-04-29T10:37:02.848Z,2.83
2019-04-29T10:39:47.061Z,3.40
2019-04-29T10:42:23.214Z,2.80
2019-04-29T10:45:17.746Z,2.30
2019-04-29T10:47:54.772Z,2.53
2019-04-29T10:50:30.645Z,2.40
2019-04-29T10:53:01.185Z,2.83
2019-04-29T10:55:31.904Z,2.77
2019-04-29T10:58:01.917Z,2.80
2019-04-29T11:01:11.940Z,2.53
2019-04-29T11:03:41.805Z,2.50
2019-04-29T11:06:11.856Z,2.90
2019-04-29T11:08:49.820Z,2.83
2019-04-29T11:11:23.285Z,3.37
2019-04-29T11:13:52.194Z,2.83
2019-04-29T11:16:22.850Z,2.93
2019-04-29T11:18:55.077Z,2.70
2019-04-29T11:21:29.388Z,2.70
2019-04-29T11:24:13.384Z,3.03
2019-04-29T11:26:48.124Z,2.73
2019-04-29T11:29:22.011Z,2.50
2019-04-29T11:31:54.143Z,2.80
2019-04-29T11:34:35.733Z,4.17
2019-04-29T11:37:06.425Z,3.07
2019-04-29T11:39:36.693Z,2.27
2019-04-29T11:42:09.730Z,2.87
2019-04-29T11:44:39.285Z,2.70
2019-04-29T11:47:08.904Z,3.00
2019-04-29T11:50:11.970Z,3.43
2019-04-29T11:52:42.101Z,2.73
2019-04-29T11:55:13.982Z,2.60
2019-04-29T11:57:49.946Z,2.77
2019-04-29T12:00:38.262Z,2.47
2019-04-29T12:03:14.402Z,2.00
2019-04-29T12:05:46.192Z,2.57
2019-04-29T12:08:18.133Z,2.67
2019-04-29T12:11:05.687Z,2.93
2019-04-29T12:13:28.385Z,2.60
2019-04-29T12:16:08.969Z,2.53
2019-04-29T12:18:43.272Z,2.77
2019-04-29T12:21:25.573Z,2.60
2019-04-29T12:23:56.892Z,2.10
2019-04-29T12:26:45.059Z,2.37
2019-04-29T12:29:18.155Z,2.70
2019-04-29T12:32:06.380Z,2.00
2019-04-29T12:34:59.161Z,2.60
2019-04-29T12:37:46.606Z,2.67
2019-04-29T12:40:49.776Z,2.53
2019-04-29T12:43:39.382Z,2.40
2019-04-29T12:46:14.008Z,2.27
2019-04-29T12:48:43.897Z,1.83
2019-04-29T12:51:16.931Z,2.30
2019-04-29T12:53:54.161Z,2.23
2019-04-29T12:56:34.849Z,1.97
2019-04-29T12:59:05.618Z,1.93
2019-04-29T13:01:58.309Z,1.80
2019-04-29T13:04:50.346Z,2.17
2019-04-29T13:07:42.933Z,1.63
2019-04-29T13:10:19.758Z,3.43
2019-04-29T13:12:49.585Z,3.00
2019-04-29T13:15:43.841Z,3.20
2019-04-29T13:18:23.687Z,3.37
2019-04-29T13:20:53.826Z,3.97
2019-04-29T13:23:33.648Z,3.20
2019-04-29T13:25:57.852Z,3.67
2019-04-29T13:28:30.463Z,3.17
2019-04-29T13:30:59.320Z,3.00
2019-04-29T13:33:29.121Z,2.93
2019-04-29T13:36:00.081Z,3.20
2019-04-29T13:38:29.752Z,3.53
2019-04-29T13:41:12.831Z,2.87
2019-04-29T13:43:39.843Z,3.13
2019-04-29T13:46:51.045Z,3.30
2019-04-29T13:49:48.769Z,3.90
2019-04-29T13:52:23.608Z,3.70
2019-04-29T13:54:53.528Z,3.83
2019-04-29T13:57:23.183Z,3.00
2019-04-29T14:00:06.764Z,3.70
2019-04-29T14:02:39.711Z,3.20
2019-04-29T14:05:10.309Z,2.80
2019-04-29T14:07:42.788Z,2.67
2019-04-29T14:10:14.771Z,3.40
2019-04-29T14:12:49.383Z,3.33
2019-04-29T14:15:16.083Z,2.67
2019-04-29T14:17:46.046Z,2.37
2019-04-29T14:20:21.516Z,2.90
2019-04-29T14:22:51.620Z,2.60
2019-04-29T14:25:21.213Z,2.40
2019-04-29T14:27:51.072Z,2.80
2019-04-29T14:30:21.841Z,2.40
2019-04-29T14:32:54.861Z,2.10
2019-04-29T14:35:31.649Z,2.50
2019-04-29T14:38:05.003Z,2.23
2019-04-29T14:40:32.797Z,1.87
2019-04-29T14:43:31.884Z,2.10
2019-04-29T14:46:21.085Z,1.90
2019-04-29T14:49:06.025Z,1.87
2019-04-29T14:51:36.581Z,1.97
2019-04-29T14:54:05.611Z,2.60
2019-04-29T14:56:33.896Z,2.50
2019-04-29T14:59:06.846Z,2.97
2019-04-29T15:01:39.977Z,3.00
2019-04-29T15:04:18.496Z,2.60
2019-04-29T15:06:55.622Z,2.97
2019-04-29T15:09:25.212Z,3.60
2019-04-29T15:12:21.783Z,3.00
2019-04-29T15:15:01.697Z,3.47
2019-04-29T15:17:53.941Z,3.30
2019-04-29T15:20:56.432Z,2.93
2019-04-29T15:23:28.731Z,2.57
2019-04-29T15:25:57.700Z,2.90
2019-04-29T15:28:27.320Z,2.70
2019-04-29T15:30:56.864Z,2.70
2019-04-29T15:33:30.526Z,3.67
2019-04-29T15:35:59.822Z,3.10
2019-04-29T15:38:29.712Z,3.27
2019-04-29T15:40:59.264Z,3.70
2019-04-29T15:43:46.760Z,3.73
2019-04-29T15:46:00.360Z,4.60
2019-04-29T15:48:30.188Z,4.00
2019-04-29T15:51:00.093Z,5.10
2019-04-29T15:53:29.636Z,4.07
2019-04-29T15:56:06.542Z,4.67
2019-04-29T15:58:30.780Z,4.03
2019-04-29T16:01:13.143Z,4.33
2019-04-29T16:03:32.006Z,4.23
2019-04-29T16:06:21.651Z,4.13
2019-04-29T16:09:13.405Z,4.30
2019-04-29T16:12:13.976Z,4.43
2019-04-29T16:14:36.681Z,4.50
2019-04-29T16:17:06.312Z,4.67
2019-04-29T16:19:36.216Z,4.10
2019-04-29T16:22:06.464Z,3.07
2019-04-29T16:24:38.411Z,3.57
2019-04-29T16:27:10.235Z,4.07
2019-04-29T16:29:38.897Z,4.33
2019-04-29T16:32:10.460Z,5.13
2019-04-29T16:34:45.129Z,4.03
2019-04-29T16:37:18.559Z,3.87
2019-04-29T16:39:42.976Z,4.43
2019-04-29T16:42:22.300Z,5.00
2019-04-29T16:44:52.448Z,4.33
2019-04-29T16:47:22.584Z,4.70
2019-04-29T16:49:52.174Z,4.13
2019-04-29T16:52:21.829Z,4.60
2019-04-29T16:54:51.695Z,4.97
2019-04-29T16:57:21.603Z,4.73
2019-04-29T16:59:51.500Z,4.70
2019-04-29T17:02:22.358Z,4.43
2019-04-29T17:04:52.330Z,3.83
2019-04-29T17:07:22.032Z,4.30
2019-04-29T17:10:09.382Z,4.80
2019-04-29T17:12:42.748Z,4.20
2019-04-29T17:15:24.095Z,4.20
2019-04-29T17:17:44.157Z,4.17
2019-04-29T17:20:14.457Z,4.67
2019-04-29T17:22:44.806Z,3.87
2019-04-29T17:25:15.673Z,4.23
2019-04-29T17:30:56.055Z,4.23
2019-04-29T17:33:50.071Z,4.20
2019-04-29T17:35:16.216Z,4.37
2019-04-29T17:36:23.667Z,4.60
2019-04-29T17:38:51.767Z,4.33
2019-04-29T17:41:21.788Z,4.53
2019-04-29T17:44:07.036Z,4.67
2019-04-29T17:47:14.463Z,4.53
2019-04-29T17:50:02.043Z,4.77
2019-04-29T17:52:30.660Z,4.37
2019-04-29T17:55:22.793Z,4.23
2019-04-29T17:58:01.243Z,4.27
2019-04-29T18:00:59.563Z,4.53
2019-04-29T18:04:07.407Z,4.70
2019-04-29T18:06:42.231Z,4.37
2019-04-29T18:09:36.644Z,4.50
2019-04-29T18:12:16.120Z,5.20
2019-04-29T18:14:45.791Z,5.33
2019-04-29T18:17:23.856Z,4.10
2019-04-29T18:20:13.445Z,4.97
2019-04-29T18:22:57.270Z,5.27
2019-04-29T18:25:41.702Z,5.43
2019-04-29T18:28:11.412Z,4.97
2019-04-29T18:30:41.344Z,5.37
2019-04-29T18:33:11.264Z,6.10
2019-04-29T18:35:41.164Z,5.83
2019-04-29T18:38:12.067Z,5.80
2019-04-29T18:40:49.533Z,6.50
2019-04-29T18:43:22.850Z,7.20
2019-04-29T18:45:56.263Z,6.73
2019-04-29T18:48:22.149Z,7.90
2019-04-29T18:50:58.672Z,6.73
2019-04-29T18:53:28.589Z,7.60
2019-04-29T18:55:58.470Z,6.93
2019-04-29T18:58:28.296Z,6.53
2019-04-29T19:00:58.256Z,6.20
2019-04-29T19:03:45.761Z,6.90
2019-04-29T19:06:15.578Z,7.03
2019-04-29T19:08:45.201Z,7.20
2019-04-29T19:11:15.341Z,8.30
2019-04-29T19:13:48.417Z,8.40
2019-04-29T19:16:21.498Z,8.13
2019-04-29T19:18:52.042Z,8.67
2019-04-29T19:21:19.183Z,10.80
2019-04-29T19:23:57.385Z,9.73
2019-04-29T19:26:27.730Z,10.50
2019-04-29T19:29:01.333Z,10.40
2019-04-29T19:31:29.253Z,10.23
2019-04-29T19:33:58.821Z,11.53
2019-04-29T19:36:28.672Z,10.30
2019-04-29T19:38:58.319Z,10.37
2019-04-29T19:41:27.976Z,11.03
2019-04-29T19:43:57.781Z,11.37
2019-04-29T19:46:36.870Z,10.13
2019-04-29T19:49:08.067Z,11.07
2019-04-29T19:51:29.985Z,11.20
2019-04-29T19:53:59.565Z,12.87
2019-04-29T19:56:29.341Z,11.10
2019-04-29T19:59:08.463Z,12.13
2019-04-29T20:01:32.022Z,10.63
2019-04-29T20:04:39.988Z,11.70
2019-04-29T20:07:10.993Z,11.97
2019-04-29T20:09:42.036Z,12.77
2019-04-29T20:12:15.026Z,12.13
2019-04-29T20:14:44.496Z,12.23
2019-04-29T20:17:39.345Z,12.97
2019-04-29T20:20:29.806Z,11.60
2019-04-29T20:23:00.442Z,12.80
2019-04-29T20:25:37.670Z,13.27
2019-04-29T20:28:06.055Z,11.60
2019-04-29T20:30:34.647Z,14.13
2019-04-29T20:33:09.556Z,12.97
2019-04-29T20:35:40.494Z,14.23
2019-04-29T20:38:08.496Z,12.83
2019-04-29T20:40:43.189Z,11.70
2019-04-29T20:43:11.179Z,11.80
2019-04-29T20:45:40.988Z,14.37
2019-04-29T20:48:15.984Z,13.23
2019-04-29T20:50:46.038Z,12.43
2019-04-29T20:53:25.706Z,12.47
2019-04-29T20:55:55.941Z,11.07
2019-04-29T20:58:31.399Z,11.60
2019-04-29T21:01:03.163Z,9.90
2019-04-29T21:03:32.148Z,11.70
2019-04-29T21:06:02.686Z,11.87
2019-04-29T21:08:31.974Z,10.87
2019-04-29T21:11:05.748Z,11.63
2019-04-29T21:13:56.103Z,11.93
2019-04-29T21:16:38.100Z,9.50
2019-04-29T21:19:11.072Z,11.60
2019-04-29T21:21:42.158Z,10.67
2019-04-29T21:24:14.103Z,10.33
2019-04-29T21:26:44.547Z,11.63
2019-04-29T21:29:15.883Z,10.33
2019-04-29T21:31:46.084Z,11.30
2019-04-29T21:34:17.504Z,12.93
2019-04-29T21:37:06.640Z,12.03
2019-04-29T21:39:46.821Z,11.27
2019-04-29T21:42:34.832Z,11.40
2019-04-29T21:45:03.982Z,11.10
2019-04-29T21:47:41.569Z,11.13
2019-04-29T21:50:02.053Z,10.00
2019-04-29T21:52:32.281Z,10.30
2019-04-29T21:55:02.108Z,10.47
2019-04-29T21:57:32.343Z,11.63
2019-04-29T22:00:02.329Z,11.50
2019-04-29T22:02:32.353Z,10.33
2019-04-29T22:05:01.937Z,9.57
2019-04-29T22:07:31.548Z,11.97
2019-04-29T22:10:01.470Z,10.03
2019-04-29T22:12:31.100Z,9.90
2019-04-29T22:15:00.652Z,10.73
2019-04-29T22:17:32.932Z,10.73
2019-04-29T22:20:04.088Z,11.90
2019-04-29T22:22:35.073Z,10.30
2019-04-29T22:25:09.826Z,10.93
2019-04-29T22:27:39.319Z,10.67
2019-04-29T22:30:14.545Z,9.70
2019-04-29T22:32:41.632Z,10.80
2019-04-29T22:35:11.536Z,11.10
2019-04-29T22:37:41.169Z,10.87
2019-04-29T22:40:11.115Z,10.83
2019-04-29T22:42:49.289Z,10.07
2019-04-29T22:45:19.000Z,12.47
2019-04-29T22:47:48.588Z,10.53
2019-04-29T22:50:18.826Z,10.17
2019-04-29T22:52:48.737Z,10.23
2019-04-29T22:55:18.436Z,9.17
2019-04-29T22:57:47.985Z,10.80
2019-04-29T23:00:20.229Z,10.90
2019-04-29T23:02:53.098Z,10.77
2019-04-29T23:05:23.597Z,10.47
2019-04-29T23:07:57.035Z,11.10
2019-04-29T23:10:27.903Z,10.20
2019-04-29T23:12:57.541Z,9.80
2019-04-29T23:15:27.353Z,9.70
2019-04-29T23:17:56.968Z,9.40
2019-04-29T23:20:51.561Z,10.90
2019-04-29T23:23:33.345Z,11.77
2019-04-29T23:25:59.870Z,11.23
2019-04-29T23:28:29.352Z,11.00
2019-04-29T23:30:59.004Z,11.90
2019-04-29T23:33:28.977Z,13.73
2019-04-29T23:35:58.546Z,12.10
2019-04-29T23:38:28.339Z,14.27
2019-04-29T23:40:57.896Z,15.60
2019-04-29T23:43:28.576Z,13.03
2019-04-29T23:46:00.490Z,12.67
2019-04-29T23:48:38.848Z,12.87
2019-04-29T23:51:00.897Z,12.37
2019-04-29T23:53:30.799Z,12.40
2019-04-29T23:56:05.606Z,13.67
2019-04-29T23:58:47.022Z,11.83
